sensor_id;sensor_type;location;lat;lon;timestamp;P1;durP1;ratioP1;P2;durP2;ratioP2
36593;SDS011;22603;47.900;8.146;2024-03-25T00:00:03;5.67;;;1.77;;
36593;SDS011;22603;47.900;8.146;2024-03-25T00:02:48;2.20;;;1.27;;
36593;SDS011;22603;47.900;8.146;2024-03-25T00:05:35;3.20;;;1.40;;
36593;SDS011;22603;47.900;8.146;2024-03-25T00:08:20;6.30;;;2.00;;
36593;SDS011;22603;47.900;8.146;2024-03-25T00:11:06;2.53;;;1.10;;
36593;SDS011;22603;47.900;8.146;2024-03-25T00:13:51;3.00;;;1.40;;
36593;SDS011;22603;47.900;8.146;2024-03-25T00:16:37;2.67;;;1.47;;
36593;SDS011;22603;47.900;8.146;2024-03-25T00:19:22;3.30;;;1.30;;
36593;SDS011;22603;47.900;8.146;2024-03-25T00:22:09;5.83;;;1.60;;
36593;SDS011;22603;47.900;8.146;2024-03-25T00:24:54;4.00;;;1.60;;
36593;SDS011;22603;47.900;8.146;2024-03-25T00:27:40;5.70;;;1.93;;
36593;SDS011;22603;47.900;8.146;2024-03-25T00:30:25;4.20;;;1.50;;
36593;SDS011;22603;47.900;8.146;2024-03-25T00:33:11;5.70;;;1.80;;
36593;SDS011;22603;47.900;8.146;2024-03-25T00:35:55;6.03;;;1.70;;
36593;SDS011;22603;47.900;8.146;2024-03-25T00:38:43;4.30;;;1.73;;
36593;SDS011;22603;47.900;8.146;2024-03-25T00:41:27;8.30;;;1.93;;
36593;SDS011;22603;47.900;8.146;2024-03-25T00:44:13;8.97;;;2.03;;
36593;SDS011;22603;47.900;8.146;2024-03-25T00:46:58;4.63;;;1.30;;
36593;SDS011;22603;47.900;8.146;2024-03-25T00:49:44;4.73;;;1.57;;
36593;SDS011;22603;47.900;8.146;2024-03-25T00:52:28;7.97;;;1.77;;
36593;SDS011;22603;47.900;8.146;2024-03-25T00:55:15;2.87;;;1.30;;
36593;SDS011;22603;47.900;8.146;2024-03-25T00:58:01;5.57;;;1.70;;
36593;SDS011;22603;47.900;8.146;2024-03-25T01:00:48;8.53;;;2.10;;
36593;SDS011;22603;47.900;8.146;2024-03-25T01:03:32;2.80;;;1.43;;
36593;SDS011;22603;47.900;8.146;2024-03-25T01:06:18;6.53;;;1.90;;
36593;SDS011;22603;47.900;8.146;2024-03-25T01:09:03;3.27;;;1.50;;
36593;SDS011;22603;47.900;8.146;2024-03-25T01:11:52;3.27;;;1.37;;
36593;SDS011;22603;47.900;8.146;2024-03-25T01:14:36;5.60;;;1.57;;
36593;SDS011;22603;47.900;8.146;2024-03-25T01:17:22;2.77;;;1.30;;
36593;SDS011;22603;47.900;8.146;2024-03-25T01:20:08;3.93;;;1.50;;
36593;SDS011;22603;47.900;8.146;2024-03-25T01:22:54;4.40;;;1.30;;
36593;SDS011;22603;47.900;8.146;2024-03-25T01:25:39;9.97;;;1.30;;
36593;SDS011;22603;47.900;8.146;2024-03-25T01:28:26;4.53;;;1.90;;
36593;SDS011;22603;47.900;8.146;2024-03-25T01:31:11;2.43;;;1.20;;
36593;SDS011;22603;47.900;8.146;2024-03-25T01:33:57;5.43;;;1.63;;
36593;SDS011;22603;47.900;8.146;2024-03-25T01:36:42;8.93;;;1.67;;
36593;SDS011;22603;47.900;8.146;2024-03-25T01:39:28;8.87;;;1.63;;
36593;SDS011;22603;47.900;8.146;2024-03-25T01:42:13;3.47;;;1.20;;
36593;SDS011;22603;47.900;8.146;2024-03-25T01:45:00;6.93;;;2.23;;
36593;SDS011;22603;47.900;8.146;2024-03-25T01:47:47;8.50;;;1.50;;
36593;SDS011;22603;47.900;8.146;2024-03-25T01:50:33;4.13;;;1.30;;
36593;SDS011;22603;47.900;8.146;2024-03-25T01:53:20;6.87;;;1.60;;
36593;SDS011;22603;47.900;8.146;2024-03-25T01:56:06;6.70;;;1.63;;
36593;SDS011;22603;47.900;8.146;2024-03-25T01:58:51;5.27;;;1.60;;
36593;SDS011;22603;47.900;8.146;2024-03-25T02:01:39;3.80;;;1.27;;
36593;SDS011;22603;47.900;8.146;2024-03-25T02:04:25;2.67;;;1.10;;
36593;SDS011;22603;47.900;8.146;2024-03-25T02:07:11;3.30;;;1.50;;
36593;SDS011;22603;47.900;8.146;2024-03-25T02:09:57;5.30;;;1.37;;
36593;SDS011;22603;47.900;8.146;2024-03-25T02:12:44;6.23;;;1.47;;
36593;SDS011;22603;47.900;8.146;2024-03-25T02:15:29;4.27;;;1.43;;
36593;SDS011;22603;47.900;8.146;2024-03-25T02:18:17;4.93;;;1.50;;
36593;SDS011;22603;47.900;8.146;2024-03-25T02:21:02;4.93;;;1.90;;
36593;SDS011;22603;47.900;8.146;2024-03-25T02:23:49;5.80;;;1.80;;
36593;SDS011;22603;47.900;8.146;2024-03-25T02:26:42;6.03;;;2.07;;
36593;SDS011;22603;47.900;8.146;2024-03-25T02:29:32;3.77;;;1.60;;
36593;SDS011;22603;47.900;8.146;2024-03-25T02:32:17;9.17;;;1.30;;
36593;SDS011;22603;47.900;8.146;2024-03-25T02:35:03;5.77;;;1.73;;
36593;SDS011;22603;47.900;8.146;2024-03-25T02:37:50;4.37;;;1.87;;
36593;SDS011;22603;47.900;8.146;2024-03-25T02:40:37;2.87;;;1.50;;
36593;SDS011;22603;47.900;8.146;2024-03-25T02:43:23;6.13;;;1.60;;
36593;SDS011;22603;47.900;8.146;2024-03-25T02:46:10;6.27;;;1.90;;
36593;SDS011;22603;47.900;8.146;2024-03-25T02:48:56;4.90;;;2.00;;
36593;SDS011;22603;47.900;8.146;2024-03-25T02:51:42;7.00;;;1.50;;
36593;SDS011;22603;47.900;8.146;2024-03-25T02:54:26;6.93;;;1.73;;
36593;SDS011;22603;47.900;8.146;2024-03-25T02:57:12;6.17;;;1.43;;
36593;SDS011;22603;47.900;8.146;2024-03-25T02:59:58;4.30;;;1.57;;
36593;SDS011;22603;47.900;8.146;2024-03-25T03:02:44;5.37;;;2.27;;
36593;SDS011;22603;47.900;8.146;2024-03-25T03:05:29;9.63;;;1.77;;
36593;SDS011;22603;47.900;8.146;2024-03-25T03:08:15;5.43;;;1.80;;
36593;SDS011;22603;47.900;8.146;2024-03-25T03:11:00;2.97;;;1.43;;
36593;SDS011;22603;47.900;8.146;2024-03-25T03:13:46;4.40;;;1.90;;
36593;SDS011;22603;47.900;8.146;2024-03-25T03:16:32;7.10;;;1.50;;
36593;SDS011;22603;47.900;8.146;2024-03-25T03:19:18;5.07;;;1.20;;
36593;SDS011;22603;47.900;8.146;2024-03-25T03:22:03;11.57;;;1.73;;
36593;SDS011;22603;47.900;8.146;2024-03-25T03:24:48;4.10;;;1.53;;
36593;SDS011;22603;47.900;8.146;2024-03-25T03:27:33;7.70;;;1.77;;
36593;SDS011;22603;47.900;8.146;2024-03-25T03:30:19;4.80;;;1.53;;
36593;SDS011;22603;47.900;8.146;2024-03-25T03:33:06;4.43;;;2.00;;
36593;SDS011;22603;47.900;8.146;2024-03-25T03:35:52;8.33;;;2.10;;
36593;SDS011;22603;47.900;8.146;2024-03-25T03:38:37;2.73;;;1.27;;
36593;SDS011;22603;47.900;8.146;2024-03-25T03:41:23;4.50;;;1.70;;
36593;SDS011;22603;47.900;8.146;2024-03-25T03:44:07;3.23;;;1.33;;
36593;SDS011;22603;47.900;8.146;2024-03-25T03:46:54;7.57;;;1.63;;
36593;SDS011;22603;47.900;8.146;2024-03-25T03:49:40;9.23;;;2.10;;
36593;SDS011;22603;47.900;8.146;2024-03-25T03:52:26;8.93;;;1.73;;
36593;SDS011;22603;47.900;8.146;2024-03-25T03:55:10;12.93;;;1.40;;
36593;SDS011;22603;47.900;8.146;2024-03-25T03:57:56;6.43;;;1.80;;
36593;SDS011;22603;47.900;8.146;2024-03-25T04:00:41;6.00;;;1.60;;
36593;SDS011;22603;47.900;8.146;2024-03-25T04:03:27;8.10;;;1.60;;
36593;SDS011;22603;47.900;8.146;2024-03-25T04:06:13;6.20;;;1.60;;
36593;SDS011;22603;47.900;8.146;2024-03-25T04:08:59;3.20;;;1.53;;
36593;SDS011;22603;47.900;8.146;2024-03-25T04:11:44;5.43;;;2.00;;
36593;SDS011;22603;47.900;8.146;2024-03-25T04:14:30;5.43;;;1.57;;
36593;SDS011;22603;47.900;8.146;2024-03-25T04:17:16;1.83;;;0.93;;
36593;SDS011;22603;47.900;8.146;2024-03-25T04:20:02;9.87;;;2.40;;
36593;SDS011;22603;47.900;8.146;2024-03-25T04:22:51;4.30;;;1.70;;
36593;SDS011;22603;47.900;8.146;2024-03-25T04:25:38;4.43;;;1.53;;
36593;SDS011;22603;47.900;8.146;2024-03-25T04:28:22;3.97;;;1.50;;
36593;SDS011;22603;47.900;8.146;2024-03-25T04:31:08;7.33;;;1.27;;
36593;SDS011;22603;47.900;8.146;2024-03-25T04:33:53;3.80;;;1.47;;
36593;SDS011;22603;47.900;8.146;2024-03-25T04:36:38;3.37;;;1.47;;
36593;SDS011;22603;47.900;8.146;2024-03-25T04:39:24;4.57;;;1.87;;
36593;SDS011;22603;47.900;8.146;2024-03-25T04:42:09;3.23;;;1.60;;
36593;SDS011;22603;47.900;8.146;2024-03-25T04:44:54;4.93;;;2.00;;
36593;SDS011;22603;47.900;8.146;2024-03-25T04:47:39;3.17;;;1.53;;
36593;SDS011;22603;47.900;8.146;2024-03-25T04:50:24;4.93;;;1.57;;
36593;SDS011;22603;47.900;8.146;2024-03-25T04:53:09;3.77;;;1.63;;
36593;SDS011;22603;47.900;8.146;2024-03-25T04:55:55;4.90;;;1.67;;
36593;SDS011;22603;47.900;8.146;2024-03-25T04:58:40;4.67;;;1.87;;
36593;SDS011;22603;47.900;8.146;2024-03-25T05:01:24;5.53;;;1.60;;
36593;SDS011;22603;47.900;8.146;2024-03-25T05:04:09;3.47;;;1.27;;
36593;SDS011;22603;47.900;8.146;2024-03-25T05:06:54;2.67;;;1.20;;
36593;SDS011;22603;47.900;8.146;2024-03-25T05:09:39;3.67;;;1.37;;
36593;SDS011;22603;47.900;8.146;2024-03-25T05:12:25;3.87;;;1.60;;
36593;SDS011;22603;47.900;8.146;2024-03-25T05:15:10;6.70;;;2.27;;
36593;SDS011;22603;47.900;8.146;2024-03-25T05:17:55;8.53;;;1.87;;
36593;SDS011;22603;47.900;8.146;2024-03-25T05:20:40;8.27;;;2.23;;
36593;SDS011;22603;47.900;8.146;2024-03-25T05:23:24;5.20;;;1.87;;
36593;SDS011;22603;47.900;8.146;2024-03-25T05:26:09;3.77;;;1.50;;
36593;SDS011;22603;47.900;8.146;2024-03-25T05:28:55;9.03;;;2.73;;
36593;SDS011;22603;47.900;8.146;2024-03-25T05:31:54;3.23;;;1.53;;
36593;SDS011;22603;47.900;8.146;2024-03-25T05:34:40;9.83;;;2.23;;
36593;SDS011;22603;47.900;8.146;2024-03-25T05:37:25;3.43;;;1.40;;
36593;SDS011;22603;47.900;8.146;2024-03-25T05:40:10;6.30;;;2.27;;
36593;SDS011;22603;47.900;8.146;2024-03-25T05:42:55;6.20;;;1.57;;
36593;SDS011;22603;47.900;8.146;2024-03-25T05:45:41;8.37;;;2.57;;
36593;SDS011;22603;47.900;8.146;2024-03-25T05:48:34;10.70;;;1.90;;
36593;SDS011;22603;47.900;8.146;2024-03-25T05:51:19;8.93;;;1.80;;
36593;SDS011;22603;47.900;8.146;2024-03-25T05:54:04;8.33;;;1.80;;
36593;SDS011;22603;47.900;8.146;2024-03-25T05:56:49;7.43;;;1.90;;
36593;SDS011;22603;47.900;8.146;2024-03-25T05:59:33;4.77;;;1.80;;
36593;SDS011;22603;47.900;8.146;2024-03-25T06:02:19;8.27;;;1.83;;
36593;SDS011;22603;47.900;8.146;2024-03-25T06:05:04;4.97;;;2.13;;
36593;SDS011;22603;47.900;8.146;2024-03-25T06:07:49;6.80;;;2.50;;
36593;SDS011;22603;47.900;8.146;2024-03-25T06:10:35;4.70;;;1.90;;
36593;SDS011;22603;47.900;8.146;2024-03-25T06:13:20;10.53;;;2.30;;
36593;SDS011;22603;47.900;8.146;2024-03-25T06:16:05;5.83;;;2.20;;
36593;SDS011;22603;47.900;8.146;2024-03-25T06:18:51;9.13;;;2.40;;
36593;SDS011;22603;47.900;8.146;2024-03-25T06:21:36;5.83;;;2.20;;
36593;SDS011;22603;47.900;8.146;2024-03-25T06:24:21;4.87;;;2.03;;
36593;SDS011;22603;47.900;8.146;2024-03-25T06:27:06;6.90;;;2.50;;
36593;SDS011;22603;47.900;8.146;2024-03-25T06:29:50;5.77;;;2.40;;
36593;SDS011;22603;47.900;8.146;2024-03-25T06:32:36;9.27;;;2.73;;
36593;SDS011;22603;47.900;8.146;2024-03-25T06:35:41;4.77;;;2.13;;
36593;SDS011;22603;47.900;8.146;2024-03-25T06:38:27;5.70;;;2.07;;
36593;SDS011;22603;47.900;8.146;2024-03-25T06:41:12;5.43;;;2.20;;
36593;SDS011;22603;47.900;8.146;2024-03-25T06:43:56;6.30;;;2.63;;
36593;SDS011;22603;47.900;8.146;2024-03-25T06:46:41;5.17;;;2.40;;
36593;SDS011;22603;47.900;8.146;2024-03-25T06:49:26;10.33;;;2.47;;
36593;SDS011;22603;47.900;8.146;2024-03-25T06:52:11;7.63;;;2.67;;
36593;SDS011;22603;47.900;8.146;2024-03-25T06:54:56;8.63;;;2.60;;
36593;SDS011;22603;47.900;8.146;2024-03-25T06:57:41;9.70;;;3.80;;
36593;SDS011;22603;47.900;8.146;2024-03-25T07:00:26;10.40;;;4.13;;
36593;SDS011;22603;47.900;8.146;2024-03-25T07:03:10;10.80;;;3.37;;
36593;SDS011;22603;47.900;8.146;2024-03-25T07:05:55;9.53;;;3.40;;
36593;SDS011;22603;47.900;8.146;2024-03-25T07:08:41;6.73;;;2.30;;
36593;SDS011;22603;47.900;8.146;2024-03-25T07:11:26;7.43;;;2.10;;
36593;SDS011;22603;47.900;8.146;2024-03-25T07:14:11;8.90;;;2.40;;
36593;SDS011;22603;47.900;8.146;2024-03-25T07:16:55;8.23;;;2.10;;
36593;SDS011;22603;47.900;8.146;2024-03-25T07:19:40;5.93;;;2.10;;
36593;SDS011;22603;47.900;8.146;2024-03-25T07:22:24;10.63;;;2.10;;
36593;SDS011;22603;47.900;8.146;2024-03-25T07:25:10;6.50;;;2.13;;
36593;SDS011;22603;47.900;8.146;2024-03-25T07:27:55;9.93;;;2.40;;
36593;SDS011;22603;47.900;8.146;2024-03-25T07:30:40;4.35;;;1.63;;
36593;SDS011;22603;47.900;8.146;2024-03-25T07:33:26;5.85;;;2.00;;
36593;SDS011;22603;47.900;8.146;2024-03-25T07:36:11;5.72;;;1.90;;
36593;SDS011;22603;47.900;8.146;2024-03-25T07:38:55;4.97;;;1.73;;
36593;SDS011;22603;47.900;8.146;2024-03-25T07:41:42;5.95;;;1.80;;
36593;SDS011;22603;47.900;8.146;2024-03-25T07:44:27;6.13;;;2.00;;
36593;SDS011;22603;47.900;8.146;2024-03-25T07:47:12;5.00;;;1.60;;
36593;SDS011;22603;47.900;8.146;2024-03-25T07:49:56;5.63;;;1.75;;
36593;SDS011;22603;47.900;8.146;2024-03-25T07:52:41;5.82;;;1.85;;
36593;SDS011;22603;47.900;8.146;2024-03-25T07:55:26;5.05;;;1.85;;
36593;SDS011;22603;47.900;8.146;2024-03-25T07:58:11;5.57;;;2.20;;
36593;SDS011;22603;47.900;8.146;2024-03-25T08:00:57;4.18;;;1.52;;
36593;SDS011;22603;47.900;8.146;2024-03-25T08:03:41;5.72;;;2.10;;
36593;SDS011;22603;47.900;8.146;2024-03-25T08:06:26;5.85;;;1.90;;
36593;SDS011;22603;47.900;8.146;2024-03-25T08:09:11;7.25;;;1.92;;
36593;SDS011;22603;47.900;8.146;2024-03-25T08:11:56;3.42;;;1.65;;
36593;SDS011;22603;47.900;8.146;2024-03-25T08:14:42;6.97;;;1.98;;
36593;SDS011;22603;47.900;8.146;2024-03-25T08:17:27;5.07;;;1.67;;
36593;SDS011;22603;47.900;8.146;2024-03-25T08:20:12;4.82;;;1.90;;
36593;SDS011;22603;47.900;8.146;2024-03-25T08:22:57;4.55;;;1.45;;
36593;SDS011;22603;47.900;8.146;2024-03-25T08:25:41;4.85;;;1.83;;
36593;SDS011;22603;47.900;8.146;2024-03-25T08:28:26;4.03;;;1.40;;
36593;SDS011;22603;47.900;8.146;2024-03-25T08:31:12;2.45;;;1.30;;
36593;SDS011;22603;47.900;8.146;2024-03-25T08:33:57;3.30;;;1.40;;
36593;SDS011;22603;47.900;8.146;2024-03-25T08:36:41;5.32;;;1.67;;
36593;SDS011;22603;47.900;8.146;2024-03-25T08:39:27;6.47;;;1.73;;
36593;SDS011;22603;47.900;8.146;2024-03-25T08:42:11;2.97;;;1.45;;
36593;SDS011;22603;47.900;8.146;2024-03-25T08:44:56;5.03;;;1.73;;
36593;SDS011;22603;47.900;8.146;2024-03-25T08:47:42;3.33;;;1.30;;
36593;SDS011;22603;47.900;8.146;2024-03-25T08:50:27;5.80;;;1.52;;
36593;SDS011;22603;47.900;8.146;2024-03-25T08:53:12;6.22;;;1.63;;
36593;SDS011;22603;47.900;8.146;2024-03-25T08:55:57;5.13;;;1.50;;
36593;SDS011;22603;47.900;8.146;2024-03-25T08:58:41;4.50;;;1.42;;
36593;SDS011;22603;47.900;8.146;2024-03-25T09:01:26;2.75;;;1.15;;
36593;SDS011;22603;47.900;8.146;2024-03-25T09:04:13;4.88;;;1.45;;
36593;SDS011;22603;47.900;8.146;2024-03-25T09:06:58;6.07;;;1.48;;
36593;SDS011;22603;47.900;8.146;2024-03-25T09:09:43;3.80;;;1.45;;
36593;SDS011;22603;47.900;8.146;2024-03-25T09:12:48;5.10;;;1.40;;
36593;SDS011;22603;47.900;8.146;2024-03-25T09:15:32;4.40;;;1.40;;
36593;SDS011;22603;47.900;8.146;2024-03-25T09:18:17;4.93;;;1.40;;
36593;SDS011;22603;47.900;8.146;2024-03-25T09:21:04;3.70;;;1.40;;
36593;SDS011;22603;47.900;8.146;2024-03-25T09:23:49;4.65;;;1.40;;
36593;SDS011;22603;47.900;8.146;2024-03-25T09:26:35;6.40;;;1.70;;
36593;SDS011;22603;47.900;8.146;2024-03-25T09:29:19;3.03;;;1.42;;
36593;SDS011;22603;47.900;8.146;2024-03-25T09:32:04;2.55;;;1.20;;
36593;SDS011;22603;47.900;8.146;2024-03-25T09:34:50;3.33;;;1.25;;
36593;SDS011;22603;47.900;8.146;2024-03-25T09:37:36;2.60;;;1.23;;
36593;SDS011;22603;47.900;8.146;2024-03-25T09:40:20;3.53;;;1.38;;
36593;SDS011;22603;47.900;8.146;2024-03-25T09:43:06;3.50;;;1.40;;
36593;SDS011;22603;47.900;8.146;2024-03-25T09:45:57;2.50;;;1.30;;
36593;SDS011;22603;47.900;8.146;2024-03-25T09:48:42;3.80;;;1.48;;
36593;SDS011;22603;47.900;8.146;2024-03-25T09:51:27;4.45;;;1.30;;
36593;SDS011;22603;47.900;8.146;2024-03-25T09:54:13;3.40;;;1.30;;
36593;SDS011;22603;47.900;8.146;2024-03-25T09:56:58;3.03;;;1.20;;
36593;SDS011;22603;47.900;8.146;2024-03-25T09:59:44;3.88;;;1.50;;
36593;SDS011;22603;47.900;8.146;2024-03-25T10:02:30;3.70;;;1.40;;
36593;SDS011;22603;47.900;8.146;2024-03-25T10:05:16;3.25;;;1.50;;
36593;SDS011;22603;47.900;8.146;2024-03-25T10:08:01;3.63;;;1.60;;
36593;SDS011;22603;47.900;8.146;2024-03-25T10:10:50;3.65;;;1.25;;
36593;SDS011;22603;47.900;8.146;2024-03-25T10:13:35;6.90;;;1.50;;
36593;SDS011;22603;47.900;8.146;2024-03-25T10:16:20;4.78;;;1.45;;
36593;SDS011;22603;47.900;8.146;2024-03-25T10:19:06;6.72;;;2.03;;
36593;SDS011;22603;47.900;8.146;2024-03-25T10:22:00;2.92;;;1.33;;
36593;SDS011;22603;47.900;8.146;2024-03-25T10:24:45;2.63;;;1.35;;
36593;SDS011;22603;47.900;8.146;2024-03-25T10:27:32;6.38;;;1.40;;
36593;SDS011;22603;47.900;8.146;2024-03-25T10:30:17;4.00;;;1.40;;
36593;SDS011;22603;47.900;8.146;2024-03-25T10:33:04;4.60;;;1.35;;
36593;SDS011;22603;47.900;8.146;2024-03-25T10:35:49;4.18;;;1.60;;
36593;SDS011;22603;47.900;8.146;2024-03-25T10:38:36;4.05;;;1.40;;
36593;SDS011;22603;47.900;8.146;2024-03-25T10:41:22;3.50;;;1.42;;
36593;SDS011;22603;47.900;8.146;2024-03-25T10:44:09;4.93;;;1.52;;
36593;SDS011;22603;47.900;8.146;2024-03-25T10:46:55;4.80;;;1.70;;
36593;SDS011;22603;47.900;8.146;2024-03-25T10:49:45;4.30;;;1.50;;
36593;SDS011;22603;47.900;8.146;2024-03-25T10:52:33;3.85;;;1.55;;
36593;SDS011;22603;47.900;8.146;2024-03-25T10:55:18;3.88;;;1.40;;
36593;SDS011;22603;47.900;8.146;2024-03-25T10:58:03;3.60;;;1.40;;
36593;SDS011;22603;47.900;8.146;2024-03-25T11:00:50;10.52;;;1.58;;
36593;SDS011;22603;47.900;8.146;2024-03-25T11:03:37;5.55;;;1.52;;
36593;SDS011;22603;47.900;8.146;2024-03-25T11:06:22;4.00;;;1.60;;
36593;SDS011;22603;47.900;8.146;2024-03-25T11:09:07;2.95;;;1.10;;
36593;SDS011;22603;47.900;8.146;2024-03-25T11:11:52;1.77;;;1.08;;
36593;SDS011;22603;47.900;8.146;2024-03-25T11:14:37;4.60;;;1.50;;
36593;SDS011;22603;47.900;8.146;2024-03-25T11:17:23;4.57;;;1.63;;
36593;SDS011;22603;47.900;8.146;2024-03-25T11:20:09;4.00;;;1.48;;
36593;SDS011;22603;47.900;8.146;2024-03-25T11:22:55;3.47;;;1.40;;
36593;SDS011;22603;47.900;8.146;2024-03-25T11:25:40;3.83;;;1.40;;
36593;SDS011;22603;47.900;8.146;2024-03-25T11:28:26;3.08;;;1.40;;
36593;SDS011;22603;47.900;8.146;2024-03-25T11:31:12;2.90;;;1.42;;
36593;SDS011;22603;47.900;8.146;2024-03-25T11:34:02;2.03;;;1.13;;
36593;SDS011;22603;47.900;8.146;2024-03-25T11:36:48;1.88;;;1.17;;
36593;SDS011;22603;47.900;8.146;2024-03-25T11:39:32;3.05;;;1.02;;
36593;SDS011;22603;47.900;8.146;2024-03-25T11:42:17;3.35;;;1.30;;
36593;SDS011;22603;47.900;8.146;2024-03-25T11:45:02;2.67;;;1.27;;
36593;SDS011;22603;47.900;8.146;2024-03-25T11:47:48;5.65;;;1.42;;
36593;SDS011;22603;47.900;8.146;2024-03-25T11:50:35;2.75;;;1.00;;
36593;SDS011;22603;47.900;8.146;2024-03-25T11:53:20;7.18;;;1.27;;
36593;SDS011;22603;47.900;8.146;2024-03-25T11:56:05;3.40;;;1.30;;
36593;SDS011;22603;47.900;8.146;2024-03-25T11:58:50;3.33;;;1.17;;
36593;SDS011;22603;47.900;8.146;2024-03-25T12:01:34;2.67;;;1.10;;
36593;SDS011;22603;47.900;8.146;2024-03-25T12:04:20;3.72;;;1.20;;
36593;SDS011;22603;47.900;8.146;2024-03-25T12:07:06;1.98;;;1.13;;
36593;SDS011;22603;47.900;8.146;2024-03-25T12:09:51;3.95;;;1.10;;
36593;SDS011;22603;47.900;8.146;2024-03-25T12:12:55;2.58;;;1.40;;
36593;SDS011;22603;47.900;8.146;2024-03-25T12:15:40;3.70;;;1.20;;
36593;SDS011;22603;47.900;8.146;2024-03-25T12:18:25;3.47;;;1.33;;
36593;SDS011;22603;47.900;8.146;2024-03-25T12:21:10;3.50;;;1.20;;
36593;SDS011;22603;47.900;8.146;2024-03-25T12:23:56;2.22;;;1.10;;
36593;SDS011;22603;47.900;8.146;2024-03-25T12:26:41;6.03;;;1.67;;
36593;SDS011;22603;47.900;8.146;2024-03-25T12:29:26;1.75;;;1.20;;
36593;SDS011;22603;47.900;8.146;2024-03-25T12:32:11;3.67;;;1.30;;
36593;SDS011;22603;47.900;8.146;2024-03-25T12:34:55;2.00;;;0.95;;
36593;SDS011;22603;47.900;8.146;2024-03-25T12:37:42;3.20;;;1.20;;
36593;SDS011;22603;47.900;8.146;2024-03-25T12:40:29;2.80;;;1.20;;
36593;SDS011;22603;47.900;8.146;2024-03-25T12:43:14;1.85;;;1.10;;
36593;SDS011;22603;47.900;8.146;2024-03-25T12:46:00;6.05;;;1.45;;
36593;SDS011;22603;47.900;8.146;2024-03-25T12:48:46;3.22;;;1.35;;
36593;SDS011;22603;47.900;8.146;2024-03-25T12:51:31;3.20;;;1.08;;
36593;SDS011;22603;47.900;8.146;2024-03-25T12:54:15;2.13;;;0.85;;
36593;SDS011;22603;47.900;8.146;2024-03-25T12:57:01;4.47;;;1.00;;
36593;SDS011;22603;47.900;8.146;2024-03-25T12:59:46;3.22;;;1.40;;
36593;SDS011;22603;47.900;8.146;2024-03-25T13:02:31;2.85;;;1.23;;
36593;SDS011;22603;47.900;8.146;2024-03-25T13:05:17;2.65;;;1.05;;
36593;SDS011;22603;47.900;8.146;2024-03-25T13:08:02;6.35;;;1.15;;
36593;SDS011;22603;47.900;8.146;2024-03-25T13:10:47;2.40;;;1.20;;
36593;SDS011;22603;47.900;8.146;2024-03-25T13:13:34;6.72;;;1.48;;
36593;SDS011;22603;47.900;8.146;2024-03-25T13:16:19;4.15;;;1.25;;
36593;SDS011;22603;47.900;8.146;2024-03-25T13:19:04;3.13;;;1.17;;
36593;SDS011;22603;47.900;8.146;2024-03-25T13:21:49;2.38;;;1.10;;
36593;SDS011;22603;47.900;8.146;2024-03-25T13:24:34;5.00;;;1.33;;
36593;SDS011;22603;47.900;8.146;2024-03-25T13:27:18;3.73;;;1.30;;
36593;SDS011;22603;47.900;8.146;2024-03-25T13:30:05;2.07;;;1.10;;
36593;SDS011;22603;47.900;8.146;2024-03-25T13:32:52;3.70;;;1.40;;
36593;SDS011;22603;47.900;8.146;2024-03-25T13:35:38;4.83;;;1.47;;
36593;SDS011;22603;47.900;8.146;2024-03-25T13:38:23;5.13;;;1.47;;
36593;SDS011;22603;47.900;8.146;2024-03-25T13:41:07;2.33;;;1.13;;
36593;SDS011;22603;47.900;8.146;2024-03-25T13:43:52;4.47;;;1.13;;
36593;SDS011;22603;47.900;8.146;2024-03-25T13:46:39;1.37;;;1.00;;
36593;SDS011;22603;47.900;8.146;2024-03-25T13:49:24;6.90;;;1.60;;
36593;SDS011;22603;47.900;8.146;2024-03-25T13:52:09;4.23;;;1.53;;
36593;SDS011;22603;47.900;8.146;2024-03-25T13:54:54;4.00;;;1.40;;
36593;SDS011;22603;47.900;8.146;2024-03-25T13:57:38;5.70;;;1.63;;
36593;SDS011;22603;47.900;8.146;2024-03-25T14:00:25;4.63;;;1.77;;
36593;SDS011;22603;47.900;8.146;2024-03-25T14:03:12;3.70;;;1.30;;
36593;SDS011;22603;47.900;8.146;2024-03-25T14:05:57;2.83;;;1.30;;
36593;SDS011;22603;47.900;8.146;2024-03-25T14:08:41;1.93;;;1.10;;
36593;SDS011;22603;47.900;8.146;2024-03-25T14:11:26;4.37;;;1.47;;
36593;SDS011;22603;47.900;8.146;2024-03-25T14:14:11;3.77;;;1.60;;
36593;SDS011;22603;47.900;8.146;2024-03-25T14:16:56;3.53;;;1.50;;
36593;SDS011;22603;47.900;8.146;2024-03-25T14:19:42;3.60;;;1.43;;
36593;SDS011;22603;47.900;8.146;2024-03-25T14:22:27;3.10;;;1.40;;
36593;SDS011;22603;47.900;8.146;2024-03-25T14:25:11;4.27;;;1.50;;
36593;SDS011;22603;47.900;8.146;2024-03-25T14:27:56;2.50;;;1.20;;
36593;SDS011;22603;47.900;8.146;2024-03-25T14:30:40;4.00;;;1.53;;
36593;SDS011;22603;47.900;8.146;2024-03-25T14:33:25;1.00;;;0.80;;
36593;SDS011;22603;47.900;8.146;2024-03-25T14:36:11;3.47;;;1.53;;
36593;SDS011;22603;47.900;8.146;2024-03-25T14:38:56;3.73;;;1.37;;
36593;SDS011;22603;47.900;8.146;2024-03-25T14:41:41;8.17;;;1.60;;
36593;SDS011;22603;47.900;8.146;2024-03-25T14:44:25;3.93;;;1.30;;
36593;SDS011;22603;47.900;8.146;2024-03-25T14:47:10;4.23;;;1.53;;
36593;SDS011;22603;47.900;8.146;2024-03-25T14:49:55;4.20;;;1.67;;
36593;SDS011;22603;47.900;8.146;2024-03-25T14:52:41;4.10;;;1.40;;
36593;SDS011;22603;47.900;8.146;2024-03-25T14:55:26;3.23;;;1.40;;
36593;SDS011;22603;47.900;8.146;2024-03-25T14:58:10;4.17;;;1.60;;
36593;SDS011;22603;47.900;8.146;2024-03-25T15:00:55;4.73;;;1.50;;
36593;SDS011;22603;47.900;8.146;2024-03-25T15:03:41;3.30;;;1.40;;
36593;SDS011;22603;47.900;8.146;2024-03-25T15:06:25;5.53;;;1.63;;
36593;SDS011;22603;47.900;8.146;2024-03-25T15:09:12;2.73;;;1.40;;
36593;SDS011;22603;47.900;8.146;2024-03-25T15:11:57;6.30;;;1.40;;
36593;SDS011;22603;47.900;8.146;2024-03-25T15:14:42;4.37;;;1.60;;
36593;SDS011;22603;47.900;8.146;2024-03-25T15:17:26;3.17;;;1.23;;
36593;SDS011;22603;47.900;8.146;2024-03-25T15:20:11;3.20;;;1.40;;
36593;SDS011;22603;47.900;8.146;2024-03-25T15:22:56;4.07;;;1.77;;
36593;SDS011;22603;47.900;8.146;2024-03-25T15:25:42;2.97;;;1.10;;
36593;SDS011;22603;47.900;8.146;2024-03-25T15:28:26;5.70;;;1.40;;
36593;SDS011;22603;47.900;8.146;2024-03-25T15:31:12;2.40;;;1.30;;
36593;SDS011;22603;47.900;8.146;2024-03-25T15:33:56;3.10;;;1.20;;
36593;SDS011;22603;47.900;8.146;2024-03-25T15:36:41;3.53;;;1.50;;
36593;SDS011;22603;47.900;8.146;2024-03-25T15:39:26;3.43;;;1.40;;
36593;SDS011;22603;47.900;8.146;2024-03-25T15:42:12;1.77;;;1.07;;
36593;SDS011;22603;47.900;8.146;2024-03-25T15:44:57;2.97;;;1.23;;
36593;SDS011;22603;47.900;8.146;2024-03-25T15:47:41;1.50;;;0.87;;
36593;SDS011;22603;47.900;8.146;2024-03-25T15:50:26;2.63;;;1.17;;
36593;SDS011;22603;47.900;8.146;2024-03-25T15:53:11;2.00;;;1.00;;
36593;SDS011;22603;47.900;8.146;2024-03-25T15:55:55;2.20;;;1.10;;
36593;SDS011;22603;47.900;8.146;2024-03-25T15:58:41;2.50;;;1.10;;
36593;SDS011;22603;47.900;8.146;2024-03-25T16:01:26;1.67;;;1.10;;
36593;SDS011;22603;47.900;8.146;2024-03-25T16:04:11;3.03;;;1.20;;
36593;SDS011;22603;47.900;8.146;2024-03-25T16:06:56;3.00;;;1.03;;
36593;SDS011;22603;47.900;8.146;2024-03-25T16:09:41;4.07;;;1.00;;
36593;SDS011;22603;47.900;8.146;2024-03-25T16:12:25;2.87;;;1.20;;
36593;SDS011;22603;47.900;8.146;2024-03-25T16:15:12;2.40;;;0.77;;
36593;SDS011;22603;47.900;8.146;2024-03-25T16:17:57;2.53;;;0.90;;
36593;SDS011;22603;47.900;8.146;2024-03-25T16:20:42;2.40;;;1.00;;
36593;SDS011;22603;47.900;8.146;2024-03-25T16:23:27;3.30;;;0.90;;
36593;SDS011;22603;47.900;8.146;2024-03-25T16:26:12;0.87;;;0.70;;
36593;SDS011;22603;47.900;8.146;2024-03-25T16:28:57;4.73;;;1.00;;
36593;SDS011;22603;47.900;8.146;2024-03-25T16:31:43;3.13;;;1.00;;
36593;SDS011;22603;47.900;8.146;2024-03-25T16:34:28;4.70;;;0.77;;
36593;SDS011;22603;47.900;8.146;2024-03-25T16:37:13;1.10;;;0.70;;